Time;durP1;ratioP1;P1;durP2;ratioP2;P2;SDS_P1;SDS_P2;PMS_P1;PMS_P2;Temp;Humidity;BMP_temperature;BMP_pressure;BME280_temperature;BME280_humidity;BME280_pressure;Samples;Min_cycle;Max_cycle;Signal;HPM_P1;HPM_P2
2022/09/05 00:00:02;;;;;;;6.03;3.80;;;;;;;;;;10417878;28;20052;-50
2022/09/05 00:05:06;;;;;;;7.68;4.15;;;;;;;;;;10411036;28;20092;-49
2022/09/05 00:10:18;;;;;;;6.20;4.38;;;;;;;;;;10397398;28;20504;-52
2022/09/05 00:15:41;;;;;;;6.05;4.43;;;;;;;;;;10410357;28;20029;-58
2022/09/05 00:20:47;;;;;;;7.63;4.45;;;;;;;;;;10410979;28;20034;-54
2022/09/05 00:26:04;;;;;;;4.97;3.78;;;;;;;;;;10410118;28;20029;-53
2022/09/05 00:31:26;;;;;;;6.22;3.78;;;;;;;;;;10424642;28;20033;-53
2022/09/05 00:36:45;;;;;;;4.78;3.45;;;;;;;;;;10410723;28;20057;-51
2022/09/05 00:41:50;;;;;;;3.90;3.03;;;;;;;;;;10387917;28;20036;-52
2022/09/05 00:47:40;;;;;;;4.07;3.10;;;;;;;;;;10396102;28;20072;-52
2022/09/05 00:52:56;;;;;;;7.07;3.80;;;;;;;;;;10406316;28;20080;-52
2022/09/05 00:58:02;;;;;;;11.40;3.65;;;;;;;;;;10406173;28;20053;-51
2022/09/05 01:03:11;;;;;;;7.95;3.92;;;;;;;;;;10414539;28;20396;-52
2022/09/05 01:08:36;;;;;;;7.60;4.20;;;;;;;;;;10446841;28;20036;-53
2022/09/05 01:14:09;;;;;;;4.05;3.65;;;;;;;;;;10389815;28;20038;-52
2022/09/05 01:19:39;;;;;;;7.03;4.25;;;;;;;;;;10405943;28;20392;-51
2022/09/05 01:25:25;;;;;;;7.10;4.03;;;;;;;;;;10420801;28;20510;-52
2022/09/05 01:30:34;;;;;;;6.65;3.88;;;;;;;;;;10427290;28;20436;-50
2022/09/05 01:35:44;;;;;;;4.95;4.20;;;;;;;;;;10422797;28;20036;-52
2022/09/05 01:40:52;;;;;;;5.13;3.97;;;;;;;;;;10417755;28;20037;-51
2022/09/05 01:46:17;;;;;;;8.23;4.40;;;;;;;;;;10406764;28;20029;-49
2022/09/05 01:51:33;;;;;;;10.88;4.20;;;;;;;;;;10404464;28;20048;-59
2022/09/05 01:56:53;;;;;;;6.45;3.95;;;;;;;;;;10405480;28;20760;-60
2022/09/05 02:02:26;;;;;;;4.32;3.85;;;;;;;;;;10401598;28;20477;-59
2022/09/05 02:07:51;;;;;;;5.78;3.85;;;;;;;;;;10402412;28;20045;-60
2022/09/05 02:13:20;;;;;;;6.05;3.80;;;;;;;;;;10407622;28;20095;-56
2022/09/05 02:18:25;;;;;;;10.20;4.53;;;;;;;;;;10395125;28;20453;-60
2022/09/05 02:23:44;;;;;;;6.55;3.63;;;;;;;;;;10421346;28;20032;-59
2022/09/05 02:28:57;;;;;;;5.28;3.70;;;;;;;;;;10420838;28;20444;-58
2022/09/05 02:34:06;;;;;;;8.40;3.97;;;;;;;;;;10418362;28;20038;-58
2022/09/05 02:39:33;;;;;;;6.13;3.47;;;;;;;;;;10409397;28;20429;-58
2022/09/05 02:45:05;;;;;;;9.67;4.07;;;;;;;;;;10409507;28;20047;-59
2022/09/05 02:50:33;;;;;;;5.00;3.15;;;;;;;;;;10409506;28;20032;-60
2022/09/05 02:55:36;;;;;;;;;;;;;;;;;;10415264;28;20041;-52
2022/09/05 03:00:43;;;;;;;5.63;3.15;;;;;;;;;;10409524;28;19917;-52
2022/09/05 03:05:59;;;;;;;12.35;2.80;;;;;;;;;;10422494;28;20026;-52
2022/09/05 03:11:24;;;;;;;5.75;2.92;;;;;;;;;;10414249;28;20026;-53
2022/09/05 03:16:39;;;;;;;4.20;3.03;;;;;;;;;;10426375;28;20124;-55
2022/09/05 03:21:52;;;;;;;4.43;2.80;;;;;;;;;;10399699;28;20095;-55
2022/09/05 03:27:14;;;;;;;3.55;2.78;;;;;;;;;;10413551;28;20383;-56
2022/09/05 03:32:23;;;;;;;4.32;2.65;;;;;;;;;;10439145;28;20063;-59
2022/09/05 03:37:49;;;;;;;3.97;3.00;;;;;;;;;;10414329;28;20021;-56
2022/09/05 03:43:36;;;;;;;7.38;3.28;;;;;;;;;;10414776;28;20108;-58
2022/09/05 03:48:51;;;;;;;3.35;2.75;;;;;;;;;;10406123;28;20516;-58
2022/09/05 03:54:20;;;;;;;4.30;3.10;;;;;;;;;;10405720;28;20063;-58
2022/09/05 03:59:32;;;;;;;3.42;3.03;;;;;;;;;;10406425;28;20045;-58
2022/09/05 04:04:54;;;;;;;5.75;3.28;;;;;;;;;;10410585;28;20468;-59
2022/09/05 04:10:12;;;;;;;4.43;3.30;;;;;;;;;;10427425;28;20068;-58
2022/09/05 04:15:30;;;;;;;8.00;3.22;;;;;;;;;;10415748;28;20913;-58
2022/09/05 04:20:54;;;;;;;8.93;3.53;;;;;;;;;;10402631;28;20136;-58
2022/09/05 04:26:03;;;;;;;6.38;3.22;;;;;;;;;;10417293;28;20109;-58
2022/09/05 04:31:15;;;;;;;6.20;3.72;;;;;;;;;;10415875;28;20040;-57
2022/09/05 04:36:36;;;;;;;7.55;3.95;;;;;;;;;;10419086;28;20025;-58
2022/09/05 04:41:44;;;;;;;3.80;3.50;;;;;;;;;;10396517;28;20393;-51
2022/09/05 04:46:52;;;;;;;7.50;3.65;;;;;;;;;;10403014;28;20030;-54
2022/09/05 04:51:55;;;;;;;4.68;3.25;;;;;;;;;;10406859;28;20378;-52
2022/09/05 04:57:11;;;;;;;4.68;3.20;;;;;;;;;;10387210;28;20486;-50
2022/09/05 05:02:24;;;;;;;5.32;3.05;;;;;;;;;;10402462;28;20033;-49
2022/09/05 05:07:39;;;;;;;6.07;2.92;;;;;;;;;;10412342;28;20083;-52
2022/09/05 05:12:42;;;;;;;7.63;2.72;;;;;;;;;;10404067;28;20050;-51
2022/09/05 05:17:58;;;;;;;5.97;2.65;;;;;;;;;;10398363;28;20056;-52
2022/09/05 05:23:09;;;;;;;16.08;3.20;;;;;;;;;;10405389;28;20029;-53
2022/09/05 05:28:12;;;;;;;15.63;3.78;;;;;;;;;;10411072;28;20026;-55
2022/09/05 05:33:30;;;;;;;17.55;4.10;;;;;;;;;;10405346;28;20055;-55
2022/09/05 05:38:31;;;;;;;21.50;4.13;;;;;;;;;;10412153;28;20099;-59
2022/09/05 05:43:38;;;;;;;23.67;3.30;;;;;;;;;;10408613;28;20103;-57
2022/09/05 05:48:40;;;;;;;10.75;3.60;;;;;;;;;;10405889;28;20035;-59
2022/09/05 05:53:56;;;;;;;26.85;4.60;;;;;;;;;;10397989;28;20524;-59
2022/09/05 05:59:19;;;;;;;14.77;3.55;;;;;;;;;;10412523;28;20092;-58
2022/09/05 06:04:38;;;;;;;21.80;3.55;;;;;;;;;;10408106;28;20040;-60
2022/09/05 06:10:20;;;;;;;18.35;3.65;;;;;;;;;;10403102;28;20029;-58
2022/09/05 06:15:48;;;;;;;12.13;3.03;;;;;;;;;;10412038;28;20116;-58
2022/09/05 06:21:07;;;;;;;;;;;;;;;;;;10426493;28;20025;-51
2022/09/05 06:26:50;;;;;;;8.57;2.65;;;;;;;;;;10421614;28;19913;-59
2022/09/05 06:32:20;;;;;;;9.35;3.58;;;;;;;;;;10428180;28;20423;-55
2022/09/05 06:37:59;;;;;;;14.15;4.30;;;;;;;;;;10409487;28;20032;-59
2022/09/05 06:43:47;;;;;;;12.95;3.88;;;;;;;;;;10401121;28;20443;-52
2022/09/05 06:49:13;;;;;;;12.23;3.83;;;;;;;;;;10426191;28;20393;-56
2022/09/05 06:54:31;;;;;;;7.35;3.75;;;;;;;;;;10393453;28;20084;-57
2022/09/05 06:59:58;;;;;;;13.60;3.35;;;;;;;;;;10395270;28;20052;-59
2022/09/05 07:05:17;;;;;;;7.65;3.50;;;;;;;;;;10408617;28;20421;-58
2022/09/05 07:10:20;;;;;;;6.07;3.05;;;;;;;;;;10427577;28;20029;-50
2022/09/05 07:16:00;;;;;;;5.72;3.10;;;;;;;;;;10406086;28;20064;-59
2022/09/05 07:21:06;;;;;;;6.72;3.30;;;;;;;;;;10410137;28;20042;-54
2022/09/05 07:26:10;;;;;;;7.40;2.88;;;;;;;;;;10410758;28;20036;-59
2022/09/05 07:31:17;;;;;;;5.15;2.88;;;;;;;;;;10415953;28;20022;-60
2022/09/05 07:36:22;;;;;;;4.28;2.92;;;;;;;;;;10412065;28;20033;-49
2022/09/05 07:41:27;;;;;;;5.60;2.88;;;;;;;;;;10424815;28;20524;-56
2022/09/05 07:46:31;;;;;;;2.90;2.60;;;;;;;;;;10412011;28;20029;-58
2022/09/05 07:51:34;;;;;;;4.22;2.75;;;;;;;;;;10398947;28;20116;-58
2022/09/05 07:56:46;;;;;;;7.15;3.15;;;;;;;;;;10423455;28;20052;-54
2022/09/05 08:01:49;;;;;;;3.78;2.47;;;;;;;;;;10404740;28;20038;-58
2022/09/05 08:06:51;;;;;;;4.22;2.53;;;;;;;;;;10417332;28;20028;-57
2022/09/05 08:11:58;;;;;;;8.52;2.38;;;;;;;;;;10421150;28;20033;-53
2022/09/05 08:16:59;;;;;;;4.65;2.70;;;;;;;;;;10409069;28;20033;-54
2022/09/05 08:22:02;;;;;;;4.00;2.47;;;;;;;;;;10419849;28;20032;-52
2022/09/05 08:27:14;;;;;;;5.82;2.65;;;;;;;;;;10412456;28;20477;-50
2022/09/05 08:32:21;;;;;;;5.03;2.58;;;;;;;;;;10430609;28;20026;-55
2022/09/05 08:37:25;;;;;;;5.20;2.37;;;;;;;;;;10423797;28;20592;-54
2022/09/05 08:43:02;;;;;;;4.32;2.30;;;;;;;;;;10423693;28;20053;-57
2022/09/05 08:48:15;;;;;;;3.73;2.37;;;;;;;;;;10425921;28;20033;-57
2022/09/05 08:53:28;;;;;;;6.72;2.58;;;;;;;;;;10412580;28;20029;-50
2022/09/05 08:59:09;;;;;;;2.80;2.45;;;;;;;;;;10423913;28;20042;-53
2022/09/05 09:04:18;;;;;;;5.82;2.40;;;;;;;;;;10418955;28;20503;-57
2022/09/05 09:09:53;;;;;;;4.22;2.83;;;;;;;;;;10411441;28;20032;-57
2022/09/05 09:14:58;;;;;;;3.70;2.63;;;;;;;;;;10409694;28;20135;-53
2022/09/05 09:20:08;;;;;;;2.85;2.50;;;;;;;;;;10408669;28;20112;-54
2022/09/05 09:25:18;;;;;;;6.22;2.30;;;;;;;;;;10382464;28;20026;-52
2022/09/05 09:30:19;;;;;;;5.07;2.72;;;;;;;;;;10409387;28;20096;-52
2022/09/05 09:35:45;;;;;;;4.05;2.85;;;;;;;;;;10406994;28;20025;-52
2022/09/05 09:40:59;;;;;;;3.13;2.50;;;;;;;;;;10423103;28;20381;-52
2022/09/05 09:46:02;;;;;;;5.65;2.78;;;;;;;;;;10407941;28;20079;-53
2022/09/05 09:51:30;;;;;;;3.20;2.20;;;;;;;;;;10420915;28;20036;-50
2022/09/05 09:56:36;;;;;;;;;;;;;;;;;;10420660;28;20382;-59
2022/09/05 10:02:00;;;;;;;3.97;2.47;;;;;;;;;;10407779;28;19913;-59
2022/09/05 10:07:09;;;;;;;4.45;2.70;;;;;;;;;;10426775;28;20068;-57
2022/09/05 10:12:51;;;;;;;3.10;2.42;;;;;;;;;;10427419;28;20507;-57
2022/09/05 10:18:04;;;;;;;4.45;2.58;;;;;;;;;;10407399;28;20373;-59
2022/09/05 10:23:37;;;;;;;4.55;2.47;;;;;;;;;;10393169;28;20084;-58
2022/09/05 10:29:16;;;;;;;3.63;2.40;;;;;;;;;;10406941;28;20029;-58
2022/09/05 10:34:26;;;;;;;5.13;2.67;;;;;;;;;;10400314;28;20076;-58
2022/09/05 10:39:34;;;;;;;2.20;2.00;;;;;;;;;;10408198;28;20497;-57
2022/09/05 10:44:39;;;;;;;4.03;2.50;;;;;;;;;;10425445;28;20071;-59
2022/09/05 10:49:43;;;;;;;3.30;2.35;;;;;;;;;;10413047;28;20026;-58
2022/09/05 10:55:11;;;;;;;3.38;2.35;;;;;;;;;;10403453;28;20622;-58
2022/09/05 11:00:41;;;;;;;5.40;2.80;;;;;;;;;;10427214;28;20094;-59
2022/09/05 11:05:54;;;;;;;2.90;2.35;;;;;;;;;;10405207;28;20046;-55
2022/09/05 11:11:11;;;;;;;3.00;2.13;;;;;;;;;;10423959;28;20051;-58
2022/09/05 11:16:17;;;;;;;6.65;2.53;;;;;;;;;;10440944;28;20473;-59
2022/09/05 11:21:30;;;;;;;3.17;2.60;;;;;;;;;;10405767;28;20026;-59
2022/09/05 11:26:44;;;;;;;3.95;2.20;;;;;;;;;;10436628;28;20025;-55
2022/09/05 11:32:08;;;;;;;4.38;2.28;;;;;;;;;;10413843;28;20030;-58
2022/09/05 11:37:50;;;;;;;2.35;2.15;;;;;;;;;;10407892;28;20080;-59
2022/09/05 11:43:02;;;;;;;8.05;2.08;;;;;;;;;;10390008;28;20497;-50
2022/09/05 11:48:14;;;;;;;2.53;2.25;;;;;;;;;;10412173;28;20585;-49
2022/09/05 11:53:36;;;;;;;3.45;2.20;;;;;;;;;;10426818;28;20026;-52
2022/09/05 11:59:07;;;;;;;5.70;2.55;;;;;;;;;;10411885;28;20045;-53
2022/09/05 12:04:35;;;;;;;3.47;2.30;;;;;;;;;;10426811;28;20037;-52
2022/09/05 12:09:43;;;;;;;2.92;2.60;;;;;;;;;;10392365;28;20037;-50
2022/09/05 12:15:02;;;;;;;3.15;2.15;;;;;;;;;;10419583;28;20099;-50
2022/09/05 12:20:17;;;;;;;2.20;1.95;;;;;;;;;;10398498;28;20378;-54
2022/09/05 12:25:32;;;;;;;2.60;2.03;;;;;;;;;;10406649;28;20025;-50
2022/09/05 12:30:36;;;;;;;3.22;2.00;;;;;;;;;;10416667;28;20067;-48
2022/09/05 12:35:36;;;;;;;2.97;2.17;;;;;;;;;;10395349;28;20160;-48
2022/09/05 12:40:41;;;;;;;5.80;2.13;;;;;;;;;;10394349;28;20235;-49
2022/09/05 12:45:50;;;;;;;4.60;2.00;;;;;;;;;;10403629;28;20207;-48
2022/09/05 12:51:10;;;;;;;2.15;1.95;;;;;;;;;;10402911;28;20033;-48
2022/09/05 12:56:25;;;;;;;3.90;2.20;;;;;;;;;;10400724;28;20080;-48
2022/09/05 13:01:30;;;;;;;4.60;2.33;;;;;;;;;;10408314;28;20038;-48
2022/09/05 13:06:45;;;;;;;7.18;2.53;;;;;;;;;;10399245;28;20037;-48
2022/09/05 13:12:02;;;;;;;6.82;2.25;;;;;;;;;;10416585;28;20025;-51
2022/09/05 13:17:06;;;;;;;4.88;2.47;;;;;;;;;;10419342;28;20037;-57
2022/09/05 13:22:09;;;;;;;4.38;2.78;;;;;;;;;;10424243;28;20041;-53
2022/09/05 13:27:16;;;;;;;5.85;2.47;;;;;;;;;;10408837;28;20055;-49
2022/09/05 13:32:32;;;;;;;2.60;2.33;;;;;;;;;;10399080;28;20120;-50
2022/09/05 13:37:37;;;;;;;5.10;2.35;;;;;;;;;;10408161;28;20317;-49
2022/09/05 13:42:42;;;;;;;5.57;2.33;;;;;;;;;;10413397;28;20040;-50
2022/09/05 13:47:45;;;;;;;7.68;2.10;;;;;;;;;;10406808;28;20108;-49
2022/09/05 13:52:52;;;;;;;4.95;2.47;;;;;;;;;;10419112;28;20033;-50
2022/09/05 13:58:17;;;;;;;2.73;2.00;;;;;;;;;;10403978;28;20087;-51
2022/09/05 14:03:38;;;;;;;4.38;2.45;;;;;;;;;;10414352;28;20111;-49
2022/09/05 14:09:10;;;;;;;2.85;2.10;;;;;;;;;;10414235;28;20140;-51
2022/09/05 14:14:20;;;;;;;5.40;2.50;;;;;;;;;;10394349;28;20381;-51
2022/09/05 14:24:46;;;;;;;8.82;2.35;;;;;;;;;;10407395;28;20026;-54
2022/09/05 14:29:50;;;;;;;3.20;2.42;;;;;;;;;;10406925;28;20025;-54
2022/09/05 14:35:02;;;;;;;4.07;2.20;;;;;;;;;;10392087;28;20025;-56
2022/09/05 14:40:39;;;;;;;6.22;2.80;;;;;;;;;;10411068;28;20026;-53
2022/09/05 14:46:04;;;;;;;7.22;2.70;;;;;;;;;;10370726;28;20098;-56
2022/09/05 14:51:28;;;;;;;6.60;2.60;;;;;;;;;;10406791;28;20032;-54
2022/09/05 14:56:43;;;;;;;6.78;2.58;;;;;;;;;;10406388;28;20037;-55
2022/09/05 15:01:55;;;;;;;5.47;2.45;;;;;;;;;;10402681;28;20049;-51
2022/09/05 15:07:27;;;;;;;5.57;2.80;;;;;;;;;;10407307;28;20032;-55
2022/09/05 15:12:28;;;;;;;3.47;2.75;;;;;;;;;;10399118;28;20053;-53
2022/09/05 15:17:29;;;;;;;3.58;2.35;;;;;;;;;;10420022;28;20037;-48
2022/09/05 15:22:33;;;;;;;5.20;2.63;;;;;;;;;;10411350;28;20124;-49
2022/09/05 15:27:34;;;;;;;4.85;2.30;;;;;;;;;;10408332;28;20036;-52
2022/09/05 15:32:36;;;;;;;3.72;2.22;;;;;;;;;;10383209;28;20493;-51
2022/09/05 15:37:40;;;;;;;10.98;2.47;;;;;;;;;;10390328;28;20021;-52
2022/09/05 15:42:56;;;;;;;5.97;2.00;;;;;;;;;;10400158;28;20110;-50
2022/09/05 15:48:16;;;;;;;4.65;1.90;;;;;;;;;;10417566;28;20059;-50
2022/09/05 15:53:27;;;;;;;6.40;2.28;;;;;;;;;;10433392;28;20504;-51
2022/09/05 15:58:31;;;;;;;4.00;2.28;;;;;;;;;;10418819;28;20580;-49
2022/09/05 16:03:32;;;;;;;3.10;1.88;;;;;;;;;;10415505;28;20095;-53
2022/09/05 16:08:51;;;;;;;4.05;1.92;;;;;;;;;;10414989;28;20040;-48
2022/09/05 16:14:08;;;;;;;3.13;2.15;;;;;;;;;;10399097;28;20029;-51
2022/09/05 16:19:15;;;;;;;2.90;2.00;;;;;;;;;;10407304;28;20436;-52
2022/09/05 16:24:26;;;;;;;3.10;1.95;;;;;;;;;;10410751;28;20028;-51
2022/09/05 16:29:31;;;;;;;4.93;2.17;;;;;;;;;;10427707;28;20493;-50
2022/09/05 16:34:55;;;;;;;4.53;1.95;;;;;;;;;;10410487;28;20350;-50
2022/09/05 16:40:14;;;;;;;3.05;2.08;;;;;;;;;;10420047;28;20527;-49
2022/09/05 16:45:33;;;;;;;3.42;2.08;;;;;;;;;;10410771;28;20022;-49
2022/09/05 16:50:52;;;;;;;24.05;2.67;;;;;;;;;;10409550;28;20395;-52
2022/09/05 16:55:56;;;;;;;8.73;2.67;;;;;;;;;;10406693;28;20034;-50
2022/09/05 17:01:19;;;;;;;7.00;2.80;;;;;;;;;;10413612;28;20037;-56
2022/09/05 17:06:28;;;;;;;11.05;3.30;;;;;;;;;;10430639;28;20037;-53
2022/09/05 17:11:32;;;;;;;9.07;4.53;;;;;;;;;;10391924;28;20252;-49
2022/09/05 17:16:55;;;;;;;6.65;4.57;;;;;;;;;;10408632;28;20029;-53
2022/09/05 17:22:11;;;;;;;10.95;3.88;;;;;;;;;;10409235;28;20045;-49
2022/09/05 17:27:26;;;;;;;10.68;3.70;;;;;;;;;;10406406;28;20079;-57
2022/09/05 17:32:39;;;;;;;8.40;3.10;;;;;;;;;;10405946;28;20241;-57
2022/09/05 17:38:19;;;;;;;3.80;2.95;;;;;;;;;;10396559;28;20036;-58
2022/09/05 17:43:29;;;;;;;3.75;2.80;;;;;;;;;;10407065;28;20504;-59
2022/09/05 17:48:45;;;;;;;6.35;3.08;;;;;;;;;;10408018;28;20017;-54
2022/09/05 17:54:06;;;;;;;12.18;3.28;;;;;;;;;;10425766;28;20033;-57
2022/09/05 17:59:12;;;;;;;8.60;3.65;;;;;;;;;;10402156;28;20054;-59
2022/09/05 18:04:45;;;;;;;7.57;4.05;;;;;;;;;;10411388;28;20033;-58
2022/09/05 18:10:10;;;;;;;9.07;3.42;;;;;;;;;;10394181;28;20036;-56
2022/09/05 18:15:16;;;;;;;6.70;3.33;;;;;;;;;;10407260;28;20437;-59
2022/09/05 18:20:23;;;;;;;5.30;3.08;;;;;;;;;;10397552;28;20038;-59
2022/09/05 18:25:35;;;;;;;6.72;2.70;;;;;;;;;;10398151;28;20393;-59
2022/09/05 18:30:36;;;;;;;11.50;3.55;;;;;;;;;;10407481;28;20135;-58
2022/09/05 18:36:04;;;;;;;9.35;2.90;;;;;;;;;;10404878;28;20139;-56
2022/09/05 18:41:10;;;;;;;11.25;3.03;;;;;;;;;;10400859;28;20504;-58
2022/09/05 18:46:12;;;;;;;4.20;2.65;;;;;;;;;;10405701;28;20045;-58
2022/09/05 18:51:19;;;;;;;5.68;2.65;;;;;;;;;;10405258;28;20033;-57
2022/09/05 18:56:32;;;;;;;6.30;2.92;;;;;;;;;;10403479;28;20053;-58
2022/09/05 19:01:35;;;;;;;3.67;2.45;;;;;;;;;;10392519;28;20488;-59
2022/09/05 19:06:42;;;;;;;5.15;3.05;;;;;;;;;;10415932;28;20029;-61
2022/09/05 19:12:00;;;;;;;4.70;2.70;;;;;;;;;;10404154;28;20028;-59
2022/09/05 19:17:34;;;;;;;3.28;2.55;;;;;;;;;;10422004;28;20808;-60
2022/09/05 19:22:42;;;;;;;5.30;2.70;;;;;;;;;;10429205;28;20030;-58
2022/09/05 19:27:50;;;;;;;7.55;3.45;;;;;;;;;;10412952;28;20026;-57
2022/09/05 19:32:53;;;;;;;6.00;2.58;;;;;;;;;;10421820;28;20083;-59
2022/09/05 19:37:57;;;;;;;5.97;3.20;;;;;;;;;;10419431;28;20033;-59
2022/09/05 19:42:58;;;;;;;8.25;2.97;;;;;;;;;;10413552;28;20066;-58
2022/09/05 19:48:22;;;;;;;5.95;3.00;;;;;;;;;;10416015;28;20393;-61
2022/09/05 19:53:23;;;;;;;8.93;3.10;;;;;;;;;;10410181;28;20374;-59
2022/09/05 19:58:24;;;;;;;3.47;2.75;;;;;;;;;;10351101;28;20152;-55
2022/09/05 20:03:24;;;;;;;9.60;2.72;;;;;;;;;;10341323;28;20556;-58
2022/09/05 20:08:31;;;;;;;8.23;2.83;;;;;;;;;;10330089;28;20548;-55
2022/09/05 20:13:32;;;;;;;7.25;2.80;;;;;;;;;;10335445;28;20456;-55
2022/09/05 20:18:42;;;;;;;4.80;2.72;;;;;;;;;;10337629;28;20200;-57
2022/09/05 20:23:50;;;;;;;5.85;2.88;;;;;;;;;;10336379;28;20041;-52
2022/09/05 20:28:57;;;;;;;5.53;2.72;;;;;;;;;;10323658;28;20058;-57
2022/09/05 20:34:04;;;;;;;7.63;3.58;;;;;;;;;;10332681;28;20032;-48
2022/09/05 20:39:16;;;;;;;4.90;2.83;;;;;;;;;;10331326;28;20042;-52
2022/09/05 20:44:20;;;;;;;8.07;3.35;;;;;;;;;;10331765;28;20036;-48
2022/09/05 20:49:45;;;;;;;5.97;3.08;;;;;;;;;;10330332;28;20052;-53
2022/09/05 20:54:46;;;;;;;6.03;3.30;;;;;;;;;;10333111;28;20042;-54
2022/09/05 20:59:46;;;;;;;3.95;2.63;;;;;;;;;;10376728;28;20103;-62
2022/09/05 21:05:10;;;;;;;9.35;3.05;;;;;;;;;;10410225;28;20025;-61
2022/09/05 21:10:24;;;;;;;10.57;2.95;;;;;;;;;;10415377;28;20076;-62
2022/09/05 21:15:31;;;;;;;12.52;3.08;;;;;;;;;;10420583;28;20378;-63
2022/09/05 21:20:32;;;;;;;4.97;2.83;;;;;;;;;;10422675;28;20397;-62
2022/09/05 21:25:48;;;;;;;8.02;3.22;;;;;;;;;;10412613;28;20033;-61
2022/09/05 21:30:49;;;;;;;5.70;2.65;;;;;;;;;;10407516;28;20037;-62
2022/09/05 21:35:57;;;;;;;13.30;3.33;;;;;;;;;;10398265;28;20036;-61
2022/09/05 21:41:00;;;;;;;7.97;3.20;;;;;;;;;;10401908;28;20037;-52
2022/09/05 21:46:02;;;;;;;4.03;2.88;;;;;;;;;;10397257;28;20033;-61
2022/09/05 21:51:10;;;;;;;7.60;3.70;;;;;;;;;;10398372;28;20057;-56
2022/09/05 21:56:23;;;;;;;6.85;3.22;;;;;;;;;;10411966;28;20040;-61
2022/09/05 22:01:24;;;;;;;7.55;3.97;;;;;;;;;;10409903;28;20060;-61
2022/09/05 22:06:29;;;;;;;10.23;3.72;;;;;;;;;;10424521;28;20060;-63
2022/09/05 22:11:29;;;;;;;6.88;3.72;;;;;;;;;;10397522;28;20065;-62
2022/09/05 22:16:30;;;;;;;8.20;4.23;;;;;;;;;;10430870;28;20477;-52
2022/09/05 22:21:37;;;;;;;7.43;5.10;;;;;;;;;;10407035;28;20037;-55
2022/09/05 22:26:43;;;;;;;8.57;5.93;;;;;;;;;;10387997;28;20092;-48
2022/09/05 22:31:44;;;;;;;14.55;5.63;;;;;;;;;;10388301;28;20025;-47
2022/09/05 22:36:44;;;;;;;8.23;6.67;;;;;;;;;;10404563;28;20021;-48
2022/09/05 22:41:45;;;;;;;20.07;6.10;;;;;;;;;;10403513;28;20029;-48
2022/09/05 22:46:45;;;;;;;12.47;6.13;;;;;;;;;;10384496;28;20455;-48
2022/09/05 22:51:45;;;;;;;10.03;6.07;;;;;;;;;;10391836;28;20079;-51
2022/09/05 22:56:46;;;;;;;11.27;6.13;;;;;;;;;;10409209;28;20040;-48
2022/09/05 23:01:46;;;;;;;7.90;6.40;;;;;;;;;;10412486;28;20033;-50
2022/09/05 23:06:46;;;;;;;9.73;6.17;;;;;;;;;;10432707;28;20469;-49
2022/09/05 23:11:47;;;;;;;8.63;6.17;;;;;;;;;;10400537;28;20459;-47
2022/09/05 23:16:47;;;;;;;13.23;6.20;;;;;;;;;;10393788;28;20120;-49
2022/09/05 23:21:48;;;;;;;9.15;5.53;;;;;;;;;;10421472;28;20160;-51
2022/09/05 23:26:52;;;;;;;7.47;5.22;;;;;;;;;;10414548;28;20025;-50
2022/09/05 23:31:52;;;;;;;9.88;5.60;;;;;;;;;;10413464;28;20029;-52
2022/09/05 23:36:52;;;;;;;12.30;5.27;;;;;;;;;;10425912;28;20033;-50
2022/09/05 23:41:53;;;;;;;11.67;5.77;;;;;;;;;;10435954;28;20032;-49
2022/09/05 23:46:53;;;;;;;10.97;5.43;;;;;;;;;;10442869;28;20099;-54
2022/09/05 23:51:53;;;;;;;5.93;5.13;;;;;;;;;;10433724;28;20380;-50
2022/09/05 23:56:54;;;;;;;7.77;6.00;;;;;;;;;;10426806;28;20099;-49
